createdAt,value
2019-04-14T00:02:40.454Z,23.35
2019-04-14T00:05:14.683Z,24.63
2019-04-14T00:07:44.965Z,25.72
2019-04-14T00:10:16.085Z,24.82
2019-04-14T00:12:46.949Z,31.50
2019-04-14T00:15:25.671Z,26.33
2019-04-14T00:17:47.973Z,29.95
2019-04-14T00:20:18.603Z,28.62
2019-04-14T00:22:49.220Z,28.62
2019-04-14T00:25:19.495Z,32.13
2019-04-14T00:27:49.993Z,29.80
2019-04-14T00:30:23.023Z,29.93
2019-04-14T00:32:55.624Z,29.42
2019-04-14T00:35:53.933Z,26.42
2019-04-14T00:38:34.589Z,27.07
2019-04-14T00:41:37.308Z,27.07
2019-04-14T00:44:12.433Z,27.67
2019-04-14T00:46:47.663Z,26.10
2019-04-14T00:49:17.968Z,34.38
2019-04-14T00:51:48.537Z,28.62
2019-04-14T00:54:19.631Z,25.12
2019-04-14T00:56:49.860Z,30.92
2019-04-14T00:59:20.075Z,26.93
2019-04-14T01:01:50.676Z,25.80
2019-04-14T01:04:20.847Z,28.43
2019-04-14T01:06:51.187Z,28.17
2019-04-14T01:09:21.637Z,30.08
2019-04-14T01:11:51.141Z,30.43
2019-04-14T01:14:21.271Z,26.55
2019-04-14T01:16:51.750Z,28.85
2019-04-14T01:19:22.356Z,26.05
2019-04-14T01:21:52.511Z,27.37
2019-04-14T01:24:22.824Z,32.63
2019-04-14T01:26:52.890Z,33.27
2019-04-14T01:29:23.350Z,26.87
2019-04-14T01:31:53.670Z,25.02
2019-04-14T01:34:23.816Z,24.63
2019-04-14T01:36:54.050Z,28.12
2019-04-14T01:39:24.306Z,30.08
2019-04-14T01:41:54.332Z,28.95
2019-04-14T01:44:24.224Z,28.73
2019-04-14T01:46:54.233Z,30.90
2019-04-14T01:49:24.705Z,28.55
2019-04-14T01:52:14.375Z,35.05
2019-04-14T01:54:53.776Z,30.37
2019-04-14T01:57:48.328Z,31.05
2019-04-14T02:00:40.824Z,26.27
2019-04-14T02:03:10.696Z,27.30
2019-04-14T02:05:41.297Z,27.52
2019-04-14T02:08:11.226Z,29.50
2019-04-14T02:10:41.266Z,29.20
2019-04-14T02:13:11.499Z,24.27
2019-04-14T02:15:42.068Z,24.95
2019-04-14T02:18:12.147Z,23.30
2019-04-14T02:20:42.708Z,25.12
2019-04-14T02:23:13.133Z,25.32
2019-04-14T02:25:42.988Z,23.60
2019-04-14T02:28:13.406Z,26.05
2019-04-14T02:30:54.320Z,24.87
2019-04-14T02:38:47.344Z,30.27
2019-04-14T02:41:23.470Z,30.85
2019-04-14T02:43:51.457Z,30.23
2019-04-14T02:48:53.362Z,26.30
2019-04-14T02:51:19.398Z,25.48
2019-04-14T02:54:07.268Z,27.25
2019-04-14T02:56:25.441Z,27.30
2019-04-14T02:59:02.130Z,25.77
2019-04-14T03:01:31.210Z,25.23
2019-04-14T03:04:01.512Z,27.98
2019-04-14T03:06:29.207Z,22.48
2019-04-14T03:09:07.985Z,23.40
2019-04-14T03:14:15.569Z,21.93
2019-04-14T03:16:53.987Z,21.27
2019-04-14T03:19:35.494Z,22.10
2019-04-14T03:25:06.154Z,24.98
2019-04-14T03:27:54.845Z,27.17
2019-04-14T03:36:05.531Z,22.17
2019-04-14T03:38:17.082Z,29.60
2019-04-14T03:43:13.668Z,27.40
2019-04-14T03:50:48.539Z,27.80
2019-04-14T03:53:23.419Z,27.20
2019-04-14T03:56:00.634Z,26.12
2019-04-14T03:58:27.560Z,29.00
2019-04-14T04:00:57.599Z,24.00
2019-04-14T04:03:28.219Z,24.45
2019-04-14T04:05:58.620Z,27.02
2019-04-14T04:08:29.109Z,28.52
2019-04-14T04:10:59.777Z,28.10
2019-04-14T04:13:30.239Z,27.40
2019-04-14T04:16:13.945Z,26.62
2019-04-14T04:18:51.329Z,25.85
2019-04-14T04:21:33.723Z,26.93
2019-04-14T04:24:33.539Z,29.82
2019-04-14T04:27:20.036Z,27.50
2019-04-14T04:29:59.124Z,37.88
2019-04-14T04:32:34.486Z,28.60
2019-04-14T04:35:23.914Z,34.23
2019-04-14T04:38:03.103Z,30.30
2019-04-14T04:40:33.345Z,27.48
2019-04-14T04:43:03.820Z,28.30
2019-04-14T04:45:34.126Z,30.17
2019-04-14T04:48:04.559Z,31.82
2019-04-14T04:50:35.229Z,28.77
2019-04-14T04:53:04.926Z,30.35
2019-04-14T04:55:35.156Z,33.77
2019-04-14T04:58:05.652Z,26.85
2019-04-14T05:00:35.372Z,30.00
2019-04-14T05:03:05.750Z,27.50
2019-04-14T05:06:11.675Z,31.90
2019-04-14T05:08:48.043Z,23.20
2019-04-14T05:11:34.815Z,25.90
2019-04-14T05:14:10.919Z,22.52
2019-04-14T05:16:41.771Z,25.12
2019-04-14T05:19:20.236Z,24.72
2019-04-14T05:21:43.111Z,22.85
2019-04-14T05:24:13.621Z,28.07
2019-04-14T05:26:43.838Z,23.62
2019-04-14T05:29:14.489Z,22.20
2019-04-14T05:31:44.724Z,25.40
2019-04-14T05:34:15.084Z,25.10
2019-04-14T05:36:45.374Z,21.73
2019-04-14T05:39:15.664Z,23.52
2019-04-14T05:41:57.146Z,23.10
2019-04-14T05:44:16.518Z,23.40
2019-04-14T05:46:46.969Z,21.93
2019-04-14T05:49:28.603Z,20.73
2019-04-14T05:51:48.190Z,21.17
2019-04-14T05:54:18.544Z,25.92
2019-04-14T05:56:49.309Z,22.50
2019-04-14T05:59:19.927Z,24.32
2019-04-14T06:01:49.448Z,24.67
2019-04-14T06:04:19.942Z,24.18
2019-04-14T06:06:50.542Z,27.70
2019-04-14T06:09:20.075Z,25.40
2019-04-14T06:11:49.600Z,23.30
2019-04-14T06:14:19.127Z,22.93
2019-04-14T06:16:49.694Z,22.33
2019-04-14T06:19:19.216Z,22.33
2019-04-14T06:21:48.734Z,24.67
2019-04-14T06:24:18.253Z,24.20
2019-04-14T06:26:47.768Z,25.65
2019-04-14T06:29:17.277Z,23.45
2019-04-14T06:31:59.840Z,23.15
2019-04-14T06:34:37.989Z,25.02
2019-04-14T06:37:19.055Z,28.27
2019-04-14T06:39:50.307Z,23.77
2019-04-14T06:42:19.840Z,26.02
2019-04-14T06:44:49.361Z,23.10
2019-04-14T06:47:18.873Z,26.48
2019-04-14T06:49:49.438Z,26.55
2019-04-14T06:52:19.194Z,23.52
2019-04-14T06:54:48.716Z,23.42
2019-04-14T06:57:18.242Z,24.50
2019-04-14T06:59:48.733Z,22.33
2019-04-14T07:02:18.323Z,28.07
2019-04-14T07:04:47.955Z,28.02
2019-04-14T07:07:17.472Z,22.25
2019-04-14T07:09:47.009Z,23.13
2019-04-14T07:12:16.628Z,22.90
2019-04-14T07:14:46.168Z,23.65
2019-04-14T07:17:15.761Z,25.82
2019-04-14T07:19:45.288Z,25.50
2019-04-14T07:22:14.812Z,26.00
2019-04-14T07:24:45.311Z,25.50
2019-04-14T07:27:14.844Z,27.50
2019-04-14T07:29:49.707Z,21.17
2019-04-14T07:32:36.215Z,24.03
2019-04-14T07:35:36.722Z,25.35
2019-04-14T07:38:13.248Z,26.97
2019-04-14T07:40:51.717Z,25.80
2019-04-14T07:43:37.953Z,25.80
2019-04-14T07:46:12.178Z,24.10
2019-04-14T07:48:48.123Z,22.90
2019-04-14T07:51:27.482Z,24.45
2019-04-14T07:54:00.619Z,24.40
2019-04-14T07:56:47.798Z,24.13
2019-04-14T07:59:31.112Z,20.20
2019-04-14T08:02:12.177Z,22.58
2019-04-14T08:04:49.171Z,25.70
2019-04-14T08:07:18.810Z,24.18
2019-04-14T08:09:48.387Z,25.10
2019-04-14T08:12:18.011Z,29.60
2019-04-14T08:14:47.541Z,29.17
2019-04-14T08:17:17.131Z,25.73
2019-04-14T08:19:46.668Z,25.43
2019-04-14T08:22:16.190Z,24.35
2019-04-14T08:24:45.813Z,24.50
2019-04-14T08:27:15.449Z,22.82
2019-04-14T08:29:44.978Z,23.12
2019-04-14T08:32:14.521Z,23.80
2019-04-14T08:34:44.053Z,24.60
2019-04-14T08:37:13.678Z,21.90
2019-04-14T08:39:43.214Z,27.53
2019-04-14T08:42:31.767Z,24.27
2019-04-14T08:45:08.391Z,25.10
2019-04-14T08:47:45.922Z,23.40
2019-04-14T08:50:22.101Z,30.53
2019-04-14T08:53:09.419Z,25.10
2019-04-14T08:55:47.252Z,25.55
2019-04-14T08:58:25.165Z,26.87
2019-04-14T09:01:01.755Z,27.67
2019-04-14T09:04:02.384Z,24.92
2019-04-14T09:06:44.276Z,22.70
2019-04-14T09:09:25.671Z,24.47
2019-04-14T09:11:58.754Z,24.60
2019-04-14T09:14:28.277Z,26.40
2019-04-14T09:16:57.837Z,23.70
2019-04-14T09:19:27.361Z,24.60
2019-04-14T09:21:56.980Z,26.60
2019-04-14T09:24:26.573Z,25.92
2019-04-14T09:26:56.113Z,23.27
2019-04-14T09:29:25.639Z,26.48
2019-04-14T09:31:55.199Z,27.42
2019-04-14T09:34:24.701Z,23.47
2019-04-14T09:36:54.245Z,26.43
2019-04-14T09:39:23.820Z,30.52
2019-04-14T09:41:53.587Z,24.75
2019-04-14T09:44:23.144Z,22.83
2019-04-14T09:46:52.694Z,32.23
2019-04-14T09:49:22.212Z,27.05
2019-04-14T09:51:51.753Z,29.72
2019-04-14T09:54:21.299Z,28.40
2019-04-14T09:56:50.850Z,25.10
2019-04-14T09:59:21.200Z,28.32
2019-04-14T10:01:50.748Z,29.12
2019-04-14T10:04:20.461Z,24.98
2019-04-14T10:06:49.991Z,24.25
2019-04-14T10:09:19.622Z,25.70
2019-04-14T10:11:52.536Z,25.90
2019-04-14T10:14:20.691Z,27.73
2019-04-14T10:16:50.260Z,24.23
2019-04-14T10:19:19.779Z,27.47
2019-04-14T10:21:49.338Z,24.50
2019-04-14T10:24:19.867Z,25.60
2019-04-14T10:26:49.459Z,24.23
2019-04-14T10:29:18.987Z,25.63
2019-04-14T10:31:49.461Z,26.35
2019-04-14T10:34:19.031Z,23.95
2019-04-14T10:36:48.612Z,26.45
2019-04-14T10:39:18.097Z,28.00
2019-04-14T10:41:47.635Z,26.50
2019-04-14T10:44:17.230Z,26.30
2019-04-14T10:46:46.820Z,22.53
2019-04-14T10:49:16.372Z,24.00
2019-04-14T10:51:46.106Z,21.50
2019-04-14T10:54:15.783Z,21.90
2019-04-14T10:56:45.337Z,20.90
2019-04-14T10:59:14.871Z,18.98
2019-04-14T11:01:44.441Z,22.00
2019-04-14T11:04:13.983Z,22.87
2019-04-14T11:06:49.824Z,23.70
2019-04-14T11:09:19.358Z,20.83
2019-04-14T11:11:48.907Z,20.57
2019-04-14T11:14:18.447Z,21.67
2019-04-14T11:16:48.015Z,17.60
2019-04-14T11:19:17.550Z,19.07
2019-04-14T11:21:47.260Z,18.02
2019-04-14T11:24:16.793Z,18.87
2019-04-14T11:26:46.334Z,20.03
2019-04-14T11:29:15.902Z,19.97
2019-04-14T11:32:03.606Z,20.57
2019-04-14T11:34:38.585Z,25.77
2019-04-14T11:37:26.065Z,28.17
2019-04-14T11:39:55.570Z,25.10
2019-04-14T11:42:25.216Z,24.07
2019-04-14T11:44:55.662Z,25.27
2019-04-14T11:47:25.181Z,22.25
2019-04-14T11:49:54.719Z,27.22
2019-04-14T11:52:24.258Z,35.65
2019-04-14T11:54:53.829Z,37.30
2019-04-14T11:57:23.376Z,20.03
2019-04-14T12:00:30.235Z,22.47
2019-04-14T12:03:09.153Z,19.50
2019-04-14T12:05:58.041Z,19.90
2019-04-14T12:08:35.110Z,17.52
2019-04-14T12:11:04.736Z,18.50
2019-04-14T12:13:34.286Z,19.67
2019-04-14T12:16:04.321Z,24.37
2019-04-14T12:18:33.954Z,18.07
2019-04-14T12:21:03.487Z,18.23
2019-04-14T12:23:33.087Z,15.83
2019-04-14T12:26:05.697Z,20.97
2019-04-14T12:28:34.458Z,20.35
2019-04-14T12:31:04.493Z,17.92
2019-04-14T12:33:34.258Z,18.77
2019-04-14T12:36:04.555Z,19.10
2019-04-14T12:38:35.104Z,22.27
2019-04-14T12:41:06.280Z,21.52
2019-04-14T12:43:55.363Z,21.47
2019-04-14T12:46:36.223Z,17.57
2019-04-14T12:49:14.428Z,19.92
2019-04-14T12:52:02.968Z,20.53
2019-04-14T12:54:32.580Z,16.70
2019-04-14T12:57:02.121Z,17.85
2019-04-14T12:59:33.317Z,18.20
2019-04-14T13:02:14.114Z,19.43
2019-04-14T13:04:43.697Z,25.66
2019-04-14T13:07:13.246Z,19.73
2019-04-14T13:09:43.670Z,18.82
2019-04-14T13:12:13.198Z,18.83
2019-04-14T13:14:42.750Z,18.93
2019-04-14T13:17:12.314Z,18.23
2019-04-14T13:19:41.937Z,17.73
2019-04-14T13:22:11.463Z,21.52
2019-04-14T13:24:41.049Z,20.30
2019-04-14T13:27:10.576Z,20.57
2019-04-14T13:29:40.158Z,19.42
2019-04-14T13:32:09.676Z,17.82
2019-04-14T13:34:39.202Z,18.25
2019-04-14T13:37:08.793Z,17.00
2019-04-14T13:39:39.122Z,19.40
2019-04-14T13:42:08.627Z,22.10
2019-04-14T13:44:38.173Z,18.40
2019-04-14T13:47:07.718Z,18.93
2019-04-14T13:49:38.301Z,20.40
2019-04-14T13:52:07.922Z,20.35
2019-04-14T13:54:37.482Z,18.52
2019-04-14T13:57:07.057Z,26.50
2019-04-14T13:59:36.611Z,26.40
2019-04-14T14:02:06.249Z,65.32
2019-04-14T14:04:35.791Z,75.10
2019-04-14T14:07:05.967Z,18.07
2019-04-14T14:09:36.493Z,20.48
2019-04-14T14:12:16.949Z,19.00
2019-04-14T14:15:01.449Z,15.00
2019-04-14T14:17:44.777Z,19.27
2019-04-14T14:20:20.966Z,17.60
2019-04-14T14:23:08.334Z,18.07
2019-04-14T14:25:45.673Z,17.67
2019-04-14T14:28:15.217Z,15.80
2019-04-14T14:30:45.743Z,18.67
2019-04-14T14:33:15.270Z,19.73
2019-04-14T14:35:45.811Z,19.40
2019-04-14T14:38:15.352Z,17.73
2019-04-14T14:40:45.003Z,11.70
2019-04-14T14:43:14.632Z,13.32
2019-04-14T14:45:50.625Z,14.33
2019-04-14T14:48:24.581Z,12.83
2019-04-14T14:51:16.003Z,15.23
2019-04-14T14:53:47.349Z,16.57
2019-04-14T14:56:16.912Z,18.33
2019-04-14T14:58:46.462Z,12.90
2019-04-14T15:01:16.000Z,10.23
2019-04-14T15:03:45.646Z,10.75
2019-04-14T15:06:15.178Z,12.00
2019-04-14T15:08:44.741Z,10.38
2019-04-14T15:11:14.367Z,10.95
2019-04-14T15:13:43.981Z,9.63
2019-04-14T15:16:13.581Z,8.88
2019-04-14T15:18:45.144Z,10.80
2019-04-14T15:21:14.723Z,9.63
2019-04-14T15:23:45.348Z,9.67
2019-04-14T15:26:14.862Z,9.10
2019-04-14T15:28:44.381Z,9.27
2019-04-14T15:31:13.990Z,11.08
2019-04-14T15:33:43.504Z,9.60
2019-04-14T15:36:13.113Z,9.50
2019-04-14T15:38:42.638Z,11.90
2019-04-14T15:41:12.147Z,10.70
2019-04-14T15:43:41.723Z,10.03
2019-04-14T15:46:11.226Z,10.40
2019-04-14T15:48:40.754Z,9.00
2019-04-14T15:51:10.276Z,9.23
2019-04-14T15:53:39.862Z,9.40
2019-04-14T15:56:11.076Z,12.97
2019-04-14T15:58:51.166Z,11.68
2019-04-14T16:01:51.686Z,11.03
2019-04-14T16:04:25.344Z,26.80
2019-04-14T16:07:29.067Z,12.20
2019-04-14T16:10:04.722Z,10.97
2019-04-14T16:12:43.213Z,11.87
2019-04-14T16:15:24.770Z,12.40
2019-04-14T16:18:09.205Z,11.95
2019-04-14T16:20:40.562Z,11.80
2019-04-14T16:23:10.071Z,12.07
2019-04-14T16:26:01.513Z,13.43
2019-04-14T16:28:35.909Z,13.10
2019-04-14T16:31:33.800Z,14.10
2019-04-14T16:34:11.816Z,12.25
2019-04-14T16:36:42.363Z,12.50
2019-04-14T16:39:12.075Z,14.37
2019-04-14T16:41:42.806Z,14.60
2019-04-14T16:44:12.348Z,14.33
2019-04-14T16:46:41.927Z,18.50
2019-04-14T16:49:11.483Z,15.03
2019-04-14T16:52:00.126Z,15.60
2019-04-14T16:54:51.418Z,17.17
2019-04-14T16:57:42.991Z,17.27
2019-04-14T17:00:15.221Z,15.95
2019-04-14T17:02:45.221Z,17.77
2019-04-14T17:05:14.807Z,16.50
2019-04-14T17:07:44.367Z,18.65
2019-04-14T17:10:13.931Z,19.10
2019-04-14T17:12:43.480Z,18.80
2019-04-14T17:15:36.454Z,18.83
2019-04-14T17:18:15.301Z,19.65
2019-04-14T17:21:02.882Z,19.17
2019-04-14T17:23:55.085Z,19.75
2019-04-14T17:26:49.679Z,23.30
2019-04-14T17:29:41.541Z,23.80
2019-04-14T17:32:19.958Z,23.47
2019-04-14T17:35:17.496Z,24.23
2019-04-14T17:37:52.025Z,25.25
2019-04-14T17:40:32.772Z,23.90
2019-04-14T17:43:15.400Z,23.33
2019-04-14T17:45:51.857Z,24.07
2019-04-14T17:48:43.452Z,24.57
2019-04-14T17:51:21.261Z,25.03
2019-04-14T17:53:59.700Z,26.87
2019-04-14T17:56:32.836Z,23.37
2019-04-14T17:59:14.661Z,26.30
2019-04-14T18:02:09.306Z,27.90
2019-04-14T18:04:44.596Z,24.70
2019-04-14T18:07:20.047Z,24.43
2019-04-14T18:10:20.611Z,25.53
2019-04-14T18:13:28.441Z,25.97
2019-04-14T18:16:03.320Z,25.72
2019-04-14T18:18:43.002Z,24.30
2019-04-14T18:21:12.590Z,40.53
2019-04-14T18:23:42.125Z,46.70
2019-04-14T18:26:11.679Z,26.60
2019-04-14T18:28:48.744Z,26.68
2019-04-14T18:31:41.693Z,29.75
2019-04-14T18:34:17.048Z,24.33
2019-04-14T18:36:54.757Z,28.90
2019-04-14T18:39:46.424Z,26.70
2019-04-14T18:42:22.751Z,30.02
2019-04-14T18:45:09.983Z,30.90
2019-04-14T18:47:48.204Z,28.97
2019-04-14T18:50:22.896Z,27.37
2019-04-14T18:53:02.257Z,26.95
2019-04-14T18:55:56.228Z,27.05
2019-04-14T18:58:40.369Z,32.58
2019-04-14T19:01:16.425Z,31.45
2019-04-14T19:03:46.099Z,26.65
2019-04-14T19:06:16.619Z,27.87
2019-04-14T19:08:46.176Z,27.80
2019-04-14T19:11:36.221Z,28.35
2019-04-14T19:14:06.254Z,27.13
2019-04-14T19:16:41.946Z,31.30
2019-04-14T19:19:11.535Z,27.90
2019-04-14T19:21:41.095Z,29.17
2019-04-14T19:24:10.648Z,32.53
2019-04-14T19:26:40.207Z,27.75
2019-04-14T19:29:09.758Z,29.32
2019-04-14T19:31:39.286Z,26.85
2019-04-14T19:34:08.902Z,26.77
2019-04-14T19:36:38.436Z,29.97
2019-04-14T19:39:09.625Z,27.80
2019-04-14T19:41:39.733Z,30.30
2019-04-14T19:44:09.265Z,29.10
2019-04-14T19:46:38.909Z,29.05
2019-04-14T19:49:08.761Z,29.72
2019-04-14T19:51:38.309Z,31.65
2019-04-14T19:54:08.018Z,30.82
2019-04-14T19:56:37.670Z,28.20
2019-04-14T19:59:07.240Z,29.50
2019-04-14T20:01:36.859Z,30.43
2019-04-14T20:04:06.469Z,27.20
2019-04-14T20:06:36.117Z,26.87
2019-04-14T20:09:06.923Z,29.23
2019-04-14T20:11:37.134Z,26.95
2019-04-14T20:14:06.693Z,29.77
2019-04-14T20:16:52.136Z,31.42
2019-04-14T20:19:39.509Z,30.02
2019-04-14T20:22:28.160Z,31.40
2019-04-14T20:25:03.777Z,32.60
2019-04-14T20:27:37.321Z,33.63
2019-04-14T20:30:10.877Z,34.48
2019-04-14T20:32:41.542Z,33.48
2019-04-14T20:35:11.186Z,31.35
2019-04-14T20:37:40.775Z,32.77
2019-04-14T20:40:10.501Z,33.37
2019-04-14T20:42:40.078Z,30.17
2019-04-14T20:45:11.449Z,26.90
2019-04-14T20:47:41.059Z,28.63
2019-04-14T20:50:10.608Z,29.70
2019-04-14T20:52:40.263Z,27.10
2019-04-14T20:55:09.894Z,29.00
2019-04-14T20:57:39.428Z,29.55
2019-04-14T21:00:10.032Z,29.92
2019-04-14T21:02:59.493Z,29.47
2019-04-14T21:05:57.129Z,27.57
2019-04-14T21:08:47.006Z,29.73
2019-04-14T21:11:23.469Z,29.10
2019-04-14T21:14:10.902Z,30.40
2019-04-14T21:17:04.360Z,31.30
2019-04-14T21:19:47.688Z,32.90
2019-04-14T21:22:34.547Z,33.87
2019-04-14T21:25:18.244Z,34.43
2019-04-14T21:28:09.867Z,30.33
2019-04-14T21:30:58.432Z,30.12
2019-04-14T21:33:47.032Z,37.80
2019-04-14T21:36:21.197Z,32.98
2019-04-14T21:39:19.718Z,35.23
2019-04-14T21:41:50.840Z,36.42
2019-04-14T21:44:20.398Z,36.30
2019-04-14T21:46:49.928Z,36.20
2019-04-14T21:49:20.439Z,35.33
2019-04-14T21:52:06.053Z,31.73
2019-04-14T21:54:35.648Z,32.17
2019-04-14T21:57:24.298Z,35.15
2019-04-14T22:00:21.991Z,37.50
2019-04-14T22:03:10.848Z,38.70
2019-04-14T22:05:45.815Z,33.85
2019-04-14T22:08:25.141Z,29.18
2019-04-14T22:10:59.409Z,29.10
2019-04-14T22:13:28.943Z,31.97
2019-04-14T22:15:58.552Z,29.50
2019-04-14T22:18:28.095Z,30.53
2019-04-14T22:20:57.687Z,33.47
2019-04-14T22:23:27.226Z,26.80
2019-04-14T22:25:56.835Z,32.23
2019-04-14T22:28:26.359Z,33.15
2019-04-14T22:30:55.898Z,30.62
2019-04-14T22:33:25.436Z,29.10
2019-04-14T22:35:54.968Z,32.33
2019-04-14T22:38:24.477Z,32.03
2019-04-14T22:40:54.018Z,32.38
2019-04-14T22:43:23.621Z,30.27
2019-04-14T22:45:53.170Z,30.77
2019-04-14T22:48:24.244Z,32.70
2019-04-14T22:50:53.837Z,35.58
2019-04-14T22:53:23.384Z,31.45
2019-04-14T22:55:52.954Z,29.30
2019-04-14T22:58:22.487Z,30.30
2019-04-14T23:00:56.288Z,36.00
2019-04-14T23:03:48.120Z,31.07
2019-04-14T23:06:51.941Z,32.17
2019-04-14T23:09:32.147Z,34.80
2019-04-14T23:12:11.593Z,31.53
2019-04-14T23:14:50.915Z,32.40
2019-04-14T23:17:28.229Z,32.35
2019-04-14T23:20:01.838Z,31.12
2019-04-14T23:22:42.793Z,31.53
2019-04-14T23:25:12.431Z,31.30
2019-04-14T23:27:42.002Z,36.10
2019-04-14T23:30:11.772Z,34.70
2019-04-14T23:32:41.434Z,34.95
2019-04-14T23:35:11.112Z,32.67
2019-04-14T23:37:43.565Z,33.17
2019-04-14T23:40:13.316Z,33.53
2019-04-14T23:42:42.851Z,38.90
2019-04-14T23:45:12.537Z,32.13
2019-04-14T23:47:42.149Z,35.28
2019-04-14T23:50:13.594Z,34.50
2019-04-14T23:52:43.208Z,34.90
2019-04-14T23:55:12.884Z,35.13
2019-04-14T23:57:42.430Z,35.40
